Pagrindinis puslapis
METAR-TAF:

METAR-TAF

Oro uostai :

Gioia del Colle, Italija

platuma: 40-46N, ilguma: 016-56E, Aukštis: 345 m

Dabartinis oras

Ataskaita buvo paskelbta 35 minutes, ne 18:55 UTC
Vėjas 2 kt nuo kintamojo kryptimis
Temperatūra 12°C
Drėgmė 100%
Slėgis 1014 hPa
Matomumas: 9000 m
Mažai debesys ne aukštis 2500 ft
Su prošvaistėmis ne aukštis 5000 ft

METAR: LIBV 301855Z VRB02KT 9000 FEW025 BKN050 12/12 Q1014 RMK OVC BKN090 VIS MIN 6000SE WIND THR32 VRB02KT WIND THR14 VRB02KT WHT

Laikas: 21:30 (19:30 UTC)

Prognozė

Ataskaita buvo paskelbta 2 valandos ir 30 minutes, ne 17:00 UTC
Prognozė galioja nuo 30 metu 18 UTC su 31 metu 03 UTC
Vėjas 3 kt nuo kintamojo kryptimis
Matomumas: 8000 m
Išsisklaidę debesys ne aukštis 2000 ft
Su prošvaistėmis ne aukštis 4000 ft
Laikinai
nuo 30 metu 23 UTC su 31 metu 03 UTC
Matomumas: 2000 m
Su prošvaistėmis ne aukštis 1000 ft
rūkana

TAF: LIBV 301700Z 3018/3103 VRB03KT 8000 SCT020 BKN040 TEMPO 3023/3103 2000 BR BKN010

Orai ataskaitas ir orų prognozės (METAR, TAF).

turimą stotys yra geltonos ir raudonos taškus žemėlapyje.

Perkelti pele per norėdami pamatyti stoties vardą.

Tada spustelėkite, norėdami matyti oro stebėjimo ir prognozės.

Norėdami pakeisti žemėlapį: spustelėkite ant žalios mygtukų su juodo kryžiaus žemyn,; žalią mygtuką su brūkšneliu, jei norite nutolinti; arba žalių rodyklių gretimoms žemėlapius.


METAR-TAF: